Time;durP1;ratioP1;P1;durP2;ratioP2;P2;SDS_P1;SDS_P2;PMS_P1;PMS_P2;Temp;Humidity;BMP_temperature;BMP_pressure;BME280_temperature;BME280_humidity;BME280_pressure;Samples;Min_cycle;Max_cycle;Signal;HPM_P1;HPM_P2
2023/01/08 00:02:13;;;;;;;30.13;14.43;;;;;;;;;;5050743;28;20448;-42
2023/01/08 00:04:38;;;;;;;33.53;14.68;;;;;;;;;;5051219;28;20116;-42
2023/01/08 00:07:04;;;;;;;26.98;14.52;;;;;;;;;;5050628;28;20403;-42
2023/01/08 00:09:29;;;;;;;34.90;14.60;;;;;;;;;;5050907;28;20059;-42
2023/01/08 00:11:54;;;;;;;39.95;17.80;;;;;;;;;;5050988;28;20037;-42
2023/01/08 00:14:20;;;;;;;31.65;14.95;;;;;;;;;;5050820;28;20060;-42
2023/01/08 00:16:45;;;;;;;29.45;13.32;;;;;;;;;;5050856;28;20100;-42
2023/01/08 00:19:11;;;;;;;25.33;14.05;;;;;;;;;;5050668;28;20040;-42
2023/01/08 00:21:37;;;;;;;33.03;15.18;;;;;;;;;;5050639;28;20058;-41
2023/01/08 00:24:02;;;;;;;28.63;13.95;;;;;;;;;;5050678;28;20107;-42
2023/01/08 00:26:28;;;;;;;29.63;11.88;;;;;;;;;;5050730;28;20522;-42
2023/01/08 00:28:54;;;;;;;23.90;13.07;;;;;;;;;;5050447;28;20036;-42
2023/01/08 00:31:19;;;;;;;26.75;13.65;;;;;;;;;;5050678;28;20024;-42
2023/01/08 00:33:45;;;;;;;31.67;14.52;;;;;;;;;;5052810;28;20379;-42
2023/01/08 00:36:15;;;;;;;22.17;12.13;;;;;;;;;;5054089;28;20033;-42
2023/01/08 00:38:40;;;;;;;36.28;15.05;;;;;;;;;;5054078;28;20066;-42
2023/01/08 00:41:06;;;;;;;36.97;15.68;;;;;;;;;;5054261;28;20029;-42
2023/01/08 00:43:32;;;;;;;29.17;13.52;;;;;;;;;;5054314;28;20017;-42
2023/01/08 00:45:57;;;;;;;30.35;13.82;;;;;;;;;;5053928;28;20079;-42
2023/01/08 00:48:24;;;;;;;30.92;13.27;;;;;;;;;;5053792;28;20111;-42
2023/01/08 00:50:50;;;;;;;33.13;15.15;;;;;;;;;;5053819;28;20112;-42
2023/01/08 00:53:15;;;;;;;36.28;15.30;;;;;;;;;;5053908;28;20452;-42
2023/01/08 00:55:40;;;;;;;34.97;15.63;;;;;;;;;;5053799;28;20036;-42
2023/01/08 00:58:06;;;;;;;32.42;15.57;;;;;;;;;;5053936;28;20028;-42
2023/01/08 01:00:31;;;;;;;30.60;13.75;;;;;;;;;;5053755;28;20391;-42
2023/01/08 01:02:57;;;;;;;34.13;14.57;;;;;;;;;;5053462;28;20092;-43
2023/01/08 01:05:22;;;;;;;31.73;13.93;;;;;;;;;;5052439;28;20056;-42
2023/01/08 01:07:48;;;;;;;29.38;14.98;;;;;;;;;;5053374;28;20387;-42
2023/01/08 01:10:14;;;;;;;32.55;13.90;;;;;;;;;;5053772;28;20033;-42
2023/01/08 01:12:40;;;;;;;37.08;16.35;;;;;;;;;;5053531;28;20100;-42
2023/01/08 01:15:07;;;;;;;30.33;14.55;;;;;;;;;;5053670;28;20171;-42
2023/01/08 01:17:33;;;;;;;35.85;16.60;;;;;;;;;;5053339;28;20036;-42
2023/01/08 01:19:58;;;;;;;31.25;14.50;;;;;;;;;;5053658;28;20437;-41
2023/01/08 01:22:24;;;;;;;37.10;16.60;;;;;;;;;;5053227;28;20013;-42
2023/01/08 01:24:49;;;;;;;33.03;16.15;;;;;;;;;;5053210;28;20035;-42
2023/01/08 01:27:14;;;;;;;29.27;13.82;;;;;;;;;;5053221;28;20029;-42
2023/01/08 01:29:40;;;;;;;34.15;14.52;;;;;;;;;;5053444;28;20497;-41
2023/01/08 01:32:05;;;;;;;34.50;15.55;;;;;;;;;;5053284;28;20053;-42
2023/01/08 01:34:31;;;;;;;30.80;14.68;;;;;;;;;;5053072;28;20040;-41
2023/01/08 01:36:56;;;;;;;31.63;14.07;;;;;;;;;;5053243;28;20031;-42
2023/01/08 01:39:22;;;;;;;41.83;16.73;;;;;;;;;;5053079;28;20491;-42
2023/01/08 01:41:47;;;;;;;32.67;16.35;;;;;;;;;;5052927;28;20022;-42
2023/01/08 01:44:32;;;;;;;28.50;13.85;;;;;;;;;;5052785;28;20029;-42
2023/01/08 01:46:58;;;;;;;33.42;16.83;;;;;;;;;;5052634;28;20032;-42
2023/01/08 01:49:24;;;;;;;43.97;16.15;;;;;;;;;;5052908;28;20035;-42
2023/01/08 01:51:51;;;;;;;36.25;15.82;;;;;;;;;;5052949;28;20029;-42
2023/01/08 01:54:17;;;;;;;33.35;17.10;;;;;;;;;;5052685;28;20131;-42
2023/01/08 01:56:43;;;;;;;36.45;16.23;;;;;;;;;;5052921;28;20108;-42
2023/01/08 01:59:09;;;;;;;34.17;15.35;;;;;;;;;;5052548;28;20352;-41
2023/01/08 02:01:35;;;;;;;32.45;13.98;;;;;;;;;;5052510;28;20098;-42
2023/01/08 02:04:00;;;;;;;38.78;16.55;;;;;;;;;;5051304;28;20036;-42
2023/01/08 02:06:28;;;;;;;30.85;15.02;;;;;;;;;;5052755;28;20108;-42
2023/01/08 02:08:54;;;;;;;36.65;15.88;;;;;;;;;;5052286;28;20510;-42
2023/01/08 02:11:23;;;;;;;34.00;14.32;;;;;;;;;;5052627;28;20060;-41
2023/01/08 02:14:00;;;;;;;32.83;14.27;;;;;;;;;;5052492;28;20036;-42
2023/01/08 02:16:32;;;;;;;35.15;14.15;;;;;;;;;;5052567;28;20033;-42
2023/01/08 02:19:27;;;;;;;35.65;15.15;;;;;;;;;;5052482;28;20045;-42
2023/01/08 02:22:01;;;;;;;34.42;15.65;;;;;;;;;;5032185;28;20045;-42
2023/01/08 02:24:33;;;;;;;40.72;15.50;;;;;;;;;;5052148;28;20033;-42
2023/01/08 02:27:00;;;;;;;32.35;14.25;;;;;;;;;;5052007;28;20044;-42
2023/01/08 02:29:27;;;;;;;35.50;14.45;;;;;;;;;;5051965;28;20053;-42
2023/01/08 02:31:52;;;;;;;27.67;14.50;;;;;;;;;;5051921;28;20360;-42
2023/01/08 02:34:18;;;;;;;36.65;15.02;;;;;;;;;;5051951;28;20021;-42
2023/01/08 02:36:49;;;;;;;40.78;15.30;;;;;;;;;;5052173;28;20033;-42
2023/01/08 02:39:23;;;;;;;28.85;14.40;;;;;;;;;;5051783;28;20043;-42
2023/01/08 02:41:52;;;;;;;35.60;17.05;;;;;;;;;;5052120;28;20028;-42
2023/01/08 02:44:36;;;;;;;33.50;15.95;;;;;;;;;;5051803;28;20013;-41
2023/01/08 02:47:04;;;;;;;33.28;15.43;;;;;;;;;;5051607;28;20044;-41
2023/01/08 02:49:31;;;;;;;32.25;16.88;;;;;;;;;;5051785;28;20025;-42
2023/01/08 02:51:57;;;;;;;36.40;14.30;;;;;;;;;;5051607;28;20083;-42
2023/01/08 02:54:25;;;;;;;33.72;14.60;;;;;;;;;;5051699;28;20025;-41
2023/01/08 02:56:59;;;;;;;35.40;16.20;;;;;;;;;;5050927;28;20033;-42
2023/01/08 02:59:26;;;;;;;29.02;16.52;;;;;;;;;;5051599;28;20048;-42
2023/01/08 03:01:52;;;;;;;33.25;14.35;;;;;;;;;;5050031;28;20406;-42
2023/01/08 03:04:21;;;;;;;34.75;14.65;;;;;;;;;;5051729;28;20455;-41
2023/01/08 03:06:47;;;;;;;29.33;14.98;;;;;;;;;;5051451;28;20039;-42
2023/01/08 03:09:13;;;;;;;37.83;14.57;;;;;;;;;;5051338;28;20059;-42
2023/01/08 03:12:05;;;;;;;39.53;15.30;;;;;;;;;;5051635;28;20020;-42
2023/01/08 03:14:40;;;;;;;41.22;16.40;;;;;;;;;;5050107;28;20051;-42
2023/01/08 03:17:23;;;;;;;34.10;15.02;;;;;;;;;;5051524;28;20091;-42
2023/01/08 03:19:52;;;;;;;36.33;17.70;;;;;;;;;;5051249;28;20020;-42
2023/01/08 03:22:17;;;;;;;48.20;16.70;;;;;;;;;;5051338;28;20463;-42
2023/01/08 03:24:45;;;;;;;38.92;15.90;;;;;;;;;;5051506;28;20039;-42
2023/01/08 03:27:13;;;;;;;32.78;15.77;;;;;;;;;;5051089;28;20074;-42
2023/01/08 03:29:39;;;;;;;48.90;18.83;;;;;;;;;;5051284;28;20029;-42
2023/01/08 03:32:06;;;;;;;33.90;17.13;;;;;;;;;;5051365;28;20096;-42
2023/01/08 03:34:33;;;;;;;40.35;16.13;;;;;;;;;;5049938;28;20484;-42
2023/01/08 03:37:00;;;;;;;42.28;19.80;;;;;;;;;;5051178;28;20281;-42
2023/01/08 03:39:31;;;;;;;39.72;16.10;;;;;;;;;;5051095;28;20032;-42
2023/01/08 03:41:59;;;;;;;37.97;18.85;;;;;;;;;;5051225;28;20033;-41
2023/01/08 03:44:25;;;;;;;37.55;17.42;;;;;;;;;;5051150;28;20009;-42
2023/01/08 03:46:52;;;;;;;51.33;17.50;;;;;;;;;;5050872;28;20029;-42
2023/01/08 03:49:19;;;;;;;41.55;18.17;;;;;;;;;;5051102;28;20059;-42
2023/01/08 03:51:46;;;;;;;38.40;16.88;;;;;;;;;;5051055;28;20048;-42
2023/01/08 03:54:23;;;;;;;36.30;16.00;;;;;;;;;;5050809;28;20021;-42
2023/01/08 03:56:48;;;;;;;36.10;17.67;;;;;;;;;;5051122;28;20028;-42
2023/01/08 03:59:14;;;;;;;34.53;17.08;;;;;;;;;;5051133;28;20021;-42
2023/01/08 04:01:40;;;;;;;38.25;17.45;;;;;;;;;;5050709;28;20072;-42
2023/01/08 04:04:05;;;;;;;39.05;19.38;;;;;;;;;;5050861;28;20554;-42
2023/01/08 04:06:31;;;;;;;39.42;17.17;;;;;;;;;;5051356;28;20364;-42
2023/01/08 04:08:56;;;;;;;36.05;18.65;;;;;;;;;;5054764;28;20032;-42
2023/01/08 04:11:22;;;;;;;36.17;16.60;;;;;;;;;;5054573;28;20491;-42
2023/01/08 04:13:47;;;;;;;41.85;18.10;;;;;;;;;;5054879;28;20032;-42
2023/01/08 04:16:13;;;;;;;37.55;15.55;;;;;;;;;;5054744;28;20032;-42
2023/01/08 04:18:39;;;;;;;38.00;16.13;;;;;;;;;;5054591;28;20143;-42
2023/01/08 04:21:04;;;;;;;35.20;16.63;;;;;;;;;;5053205;28;20025;-42
2023/01/08 04:23:30;;;;;;;40.55;16.80;;;;;;;;;;5054441;28;20463;-42
2023/01/08 04:25:55;;;;;;;33.95;16.17;;;;;;;;;;5054599;28;20037;-42
2023/01/08 04:28:21;;;;;;;34.97;16.15;;;;;;;;;;5054294;28;20029;-42
2023/01/08 04:30:46;;;;;;;43.15;17.77;;;;;;;;;;5052957;28;20025;-42
2023/01/08 04:33:12;;;;;;;37.40;17.25;;;;;;;;;;5054792;28;20032;-41
2023/01/08 04:35:38;;;;;;;42.25;19.58;;;;;;;;;;5054510;28;20379;-42
2023/01/08 04:38:03;;;;;;;38.72;16.77;;;;;;;;;;5054396;28;20017;-42
2023/01/08 04:40:31;;;;;;;46.03;19.90;;;;;;;;;;5054173;28;20399;-42
2023/01/08 04:42:56;;;;;;;54.72;22.38;;;;;;;;;;5053991;28;20517;-42
2023/01/08 04:45:21;;;;;;;40.88;17.35;;;;;;;;;;5054310;28;20028;-42
2023/01/08 04:47:47;;;;;;;39.72;18.27;;;;;;;;;;5054233;28;20498;-42
2023/01/08 04:50:12;;;;;;;47.17;21.50;;;;;;;;;;5053886;28;20383;-42
2023/01/08 04:52:37;;;;;;;43.08;16.52;;;;;;;;;;5053812;28;20521;-42
2023/01/08 04:55:03;;;;;;;44.83;19.67;;;;;;;;;;5053851;28;20155;-42
2023/01/08 04:57:28;;;;;;;45.47;20.90;;;;;;;;;;5053798;28;20025;-42
2023/01/08 04:59:54;;;;;;;52.13;20.35;;;;;;;;;;5053682;28;20116;-42
2023/01/08 05:02:19;;;;;;;37.65;18.15;;;;;;;;;;5053642;28;20041;-42
2023/01/08 05:04:46;;;;;;;36.67;16.40;;;;;;;;;;5053929;28;20040;-42
2023/01/08 05:07:11;;;;;;;51.22;20.75;;;;;;;;;;5053478;28;20100;-42
2023/01/08 05:09:37;;;;;;;44.05;19.25;;;;;;;;;;5053673;28;20084;-42
2023/01/08 05:12:02;;;;;;;42.17;17.00;;;;;;;;;;5053707;28;20024;-42
2023/01/08 05:14:27;;;;;;;48.67;18.33;;;;;;;;;;5053444;28;20025;-42
2023/01/08 05:16:53;;;;;;;38.25;16.98;;;;;;;;;;5052101;28;20041;-42
2023/01/08 05:19:18;;;;;;;41.55;17.33;;;;;;;;;;5052767;28;20519;-42
2023/01/08 05:21:44;;;;;;;49.95;19.45;;;;;;;;;;5053598;28;20028;-41
2023/01/08 05:24:09;;;;;;;43.35;17.63;;;;;;;;;;5052060;28;20537;-41
2023/01/08 05:26:34;;;;;;;44.58;17.98;;;;;;;;;;5053502;28;20025;-42
2023/01/08 05:29:00;;;;;;;42.33;16.63;;;;;;;;;;5053040;28;20045;-42
2023/01/08 05:31:26;;;;;;;44.10;18.38;;;;;;;;;;5053474;28;20068;-42
2023/01/08 05:33:51;;;;;;;38.40;18.33;;;;;;;;;;5053055;28;20068;-42
2023/01/08 05:36:16;;;;;;;49.80;18.00;;;;;;;;;;5053357;28;20028;-42
2023/01/08 05:38:42;;;;;;;43.80;16.50;;;;;;;;;;5053084;28;20032;-42
2023/01/08 05:41:08;;;;;;;47.38;17.40;;;;;;;;;;5053187;28;20020;-42
2023/01/08 05:43:34;;;;;;;44.13;17.40;;;;;;;;;;5052944;28;20068;-42
2023/01/08 05:46:00;;;;;;;46.40;17.65;;;;;;;;;;5053124;28;20045;-43
2023/01/08 05:48:26;;;;;;;34.13;16.65;;;;;;;;;;5052782;28;20045;-42
2023/01/08 05:50:51;;;;;;;40.13;17.63;;;;;;;;;;5052807;28;20074;-42
2023/01/08 05:53:17;;;;;;;43.00;18.63;;;;;;;;;;5052664;28;20048;-42
2023/01/08 05:55:43;;;;;;;36.25;16.13;;;;;;;;;;5052999;28;20021;-41
2023/01/08 05:58:09;;;;;;;36.13;15.55;;;;;;;;;;5052545;28;20475;-42
2023/01/08 06:00:35;;;;;;;43.10;18.10;;;;;;;;;;5052572;28;20025;-42
2023/01/08 06:03:01;;;;;;;39.60;15.88;;;;;;;;;;5052307;28;20048;-42
2023/01/08 06:05:26;;;;;;;37.67;17.08;;;;;;;;;;5052805;28;20086;-42
2023/01/08 06:07:52;;;;;;;36.75;16.63;;;;;;;;;;5052696;28;20037;-42
2023/01/08 06:10:17;;;;;;;35.35;16.80;;;;;;;;;;5052264;28;20112;-42
2023/01/08 06:12:42;;;;;;;38.20;16.13;;;;;;;;;;5052389;28;20025;-42
2023/01/08 06:15:08;;;;;;;37.17;16.30;;;;;;;;;;5052363;28;20505;-42
2023/01/08 06:17:34;;;;;;;34.42;15.48;;;;;;;;;;5052230;28;20072;-42
2023/01/08 06:20:00;;;;;;;42.38;16.95;;;;;;;;;;5052478;28;20021;-41
2023/01/08 06:22:26;;;;;;;37.80;17.88;;;;;;;;;;5052193;28;20387;-42
2023/01/08 06:24:51;;;;;;;39.28;17.02;;;;;;;;;;5052150;28;20020;-42
2023/01/08 06:27:17;;;;;;;41.05;16.73;;;;;;;;;;5052020;28;20037;-42
2023/01/08 06:29:42;;;;;;;37.78;16.83;;;;;;;;;;5052000;28;20052;-42
2023/01/08 06:32:08;;;;;;;38.10;17.27;;;;;;;;;;5050026;28;20053;-42
2023/01/08 06:34:33;;;;;;;42.30;17.23;;;;;;;;;;5052055;28;20017;-41
2023/01/08 06:36:59;;;;;;;41.08;17.67;;;;;;;;;;5051946;28;20033;-43
2023/01/08 06:39:24;;;;;;;41.47;16.50;;;;;;;;;;5052209;28;20020;-41
2023/01/08 06:41:50;;;;;;;42.97;17.15;;;;;;;;;;5051826;28;20503;-42
2023/01/08 06:44:15;;;;;;;43.95;18.58;;;;;;;;;;5051714;28;20029;-42
2023/01/08 06:46:41;;;;;;;33.58;15.30;;;;;;;;;;5052095;28;20025;-42
2023/01/08 06:49:06;;;;;;;36.25;17.13;;;;;;;;;;5051594;28;20576;-42
2023/01/08 06:51:32;;;;;;;37.42;17.25;;;;;;;;;;5052007;28;20028;-41
2023/01/08 06:53:57;;;;;;;41.83;17.92;;;;;;;;;;5051531;28;20410;-42
2023/01/08 06:56:23;;;;;;;37.30;15.57;;;;;;;;;;5051664;28;20024;-43
2023/01/08 06:58:48;;;;;;;43.03;17.15;;;;;;;;;;5050328;28;20132;-42
2023/01/08 07:01:14;;;;;;;39.00;18.73;;;;;;;;;;5051265;28;20052;-42
2023/01/08 07:03:39;;;;;;;43.40;17.70;;;;;;;;;;5051850;28;20041;-42
2023/01/08 07:06:05;;;;;;;32.63;14.98;;;;;;;;;;5051350;28;20051;-42
2023/01/08 07:08:31;;;;;;;46.08;16.73;;;;;;;;;;5051825;28;20033;-42
2023/01/08 07:11:00;;;;;;;32.97;14.80;;;;;;;;;;5051610;28;20064;-41
2023/01/08 07:13:25;;;;;;;37.05;17.55;;;;;;;;;;5051443;28;20064;-42
2023/01/08 07:15:51;;;;;;;41.17;17.90;;;;;;;;;;5051661;28;20056;-42
2023/01/08 07:18:16;;;;;;;42.80;19.77;;;;;;;;;;5051580;28;20455;-42
2023/01/08 07:20:42;;;;;;;38.85;16.50;;;;;;;;;;5051249;28;20406;-42
2023/01/08 07:23:09;;;;;;;41.63;17.15;;;;;;;;;;5051247;28;20086;-42
2023/01/08 07:25:34;;;;;;;49.40;17.20;;;;;;;;;;5051564;28;20434;-42
2023/01/08 07:28:00;;;;;;;39.00;17.23;;;;;;;;;;5051379;28;20086;-42
2023/01/08 07:30:26;;;;;;;38.92;17.52;;;;;;;;;;5051523;28;20100;-42
2023/01/08 07:32:51;;;;;;;36.05;15.63;;;;;;;;;;5051286;28;20104;-42
2023/01/08 07:35:17;;;;;;;44.95;18.63;;;;;;;;;;5051388;28;20029;-42
2023/01/08 07:37:43;;;;;;;31.95;16.48;;;;;;;;;;5051144;28;20459;-42
2023/01/08 07:40:09;;;;;;;36.00;15.70;;;;;;;;;;5051100;28;20116;-42
2023/01/08 07:42:35;;;;;;;35.53;16.17;;;;;;;;;;5053594;28;20105;-42
2023/01/08 07:45:01;;;;;;;45.60;16.88;;;;;;;;;;5055197;28;20461;-42
2023/01/08 07:47:26;;;;;;;37.47;18.13;;;;;;;;;;5055371;28;20031;-42
2023/01/08 07:49:52;;;;;;;38.22;15.98;;;;;;;;;;5054086;28;20387;-42
2023/01/08 07:52:17;;;;;;;38.70;17.15;;;;;;;;;;5055229;28;20021;-42
2023/01/08 07:54:43;;;;;;;43.95;17.48;;;;;;;;;;5055093;28;20035;-42
2023/01/08 07:57:08;;;;;;;30.92;16.92;;;;;;;;;;5054804;28;20418;-42
2023/01/08 07:59:33;;;;;;;38.53;14.10;;;;;;;;;;5054989;28;20108;-42
2023/01/08 08:01:59;;;;;;;37.60;16.40;;;;;;;;;;5054738;28;20045;-42
2023/01/08 08:04:25;;;;;;;30.48;16.33;;;;;;;;;;5054713;28;20467;-42
2023/01/08 08:06:50;;;;;;;40.53;17.35;;;;;;;;;;5054754;28;20151;-42
2023/01/08 08:09:16;;;;;;;34.20;15.40;;;;;;;;;;5054584;28;20044;-42
2023/01/08 08:11:41;;;;;;;36.65;14.32;;;;;;;;;;5054632;28;20039;-42
2023/01/08 08:14:07;;;;;;;36.75;14.88;;;;;;;;;;5054953;28;20039;-42
2023/01/08 08:16:32;;;;;;;32.13;14.93;;;;;;;;;;5053334;28;20024;-42
2023/01/08 08:18:58;;;;;;;42.70;16.33;;;;;;;;;;5054763;28;20120;-42
2023/01/08 08:21:24;;;;;;;36.10;16.23;;;;;;;;;;5054499;28;20021;-42
2023/01/08 08:23:50;;;;;;;47.33;16.98;;;;;;;;;;5054761;28;20061;-44
2023/01/08 08:26:15;;;;;;;33.50;15.80;;;;;;;;;;5054422;28;20048;-41
2023/01/08 08:28:41;;;;;;;44.90;16.42;;;;;;;;;;5054622;28;20036;-42
2023/01/08 08:31:06;;;;;;;36.20;16.08;;;;;;;;;;5054218;28;20013;-42
2023/01/08 08:33:32;;;;;;;31.58;16.25;;;;;;;;;;5054287;28;20029;-42
2023/01/08 08:35:57;;;;;;;38.45;15.45;;;;;;;;;;5054472;28;20096;-42
2023/01/08 08:38:25;;;;;;;39.25;16.25;;;;;;;;;;5054476;28;20389;-42
2023/01/08 08:40:50;;;;;;;44.53;16.45;;;;;;;;;;5054400;28;20147;-42
2023/01/08 08:43:16;;;;;;;41.97;18.05;;;;;;;;;;5054069;28;20774;-42
2023/01/08 08:45:41;;;;;;;41.58;19.30;;;;;;;;;;5054062;28;20096;-41
2023/01/08 08:48:07;;;;;;;35.60;15.45;;;;;;;;;;5053837;28;20084;-42
2023/01/08 08:50:33;;;;;;;40.90;16.67;;;;;;;;;;5053039;28;20027;-42
2023/01/08 08:52:59;;;;;;;39.80;17.13;;;;;;;;;;5053551;28;20025;-42
2023/01/08 08:55:25;;;;;;;39.88;17.80;;;;;;;;;;5053455;28;20025;-42
2023/01/08 08:57:50;;;;;;;39.90;17.55;;;;;;;;;;5052585;28;20494;-42
2023/01/08 09:00:16;;;;;;;34.72;13.65;;;;;;;;;;5053568;28;20671;-41
2023/01/08 09:02:41;;;;;;;35.42;15.45;;;;;;;;;;5053654;28;20540;-41
2023/01/08 09:05:07;;;;;;;29.98;14.25;;;;;;;;;;5053611;28;20025;-42
2023/01/08 09:07:35;;;;;;;30.20;16.10;;;;;;;;;;5053592;28;20041;-42
2023/01/08 09:10:01;;;;;;;38.45;17.05;;;;;;;;;;5053624;28;20020;-41
2023/01/08 09:12:27;;;;;;;37.22;18.33;;;;;;;;;;5053884;28;20033;-42
2023/01/08 09:14:53;;;;;;;38.63;16.98;;;;;;;;;;5053570;28;20375;-41
2023/01/08 09:17:24;;;;;;;28.50;13.48;;;;;;;;;;5053393;28;20025;-42
2023/01/08 09:19:49;;;;;;;31.33;13.32;;;;;;;;;;5053516;28;20021;-41
2023/01/08 09:22:16;;;;;;;31.30;12.38;;;;;;;;;;5053192;28;20379;-41
2023/01/08 09:24:43;;;;;;;37.05;14.40;;;;;;;;;;5053374;28;20029;-41
2023/01/08 09:27:09;;;;;;;45.70;16.05;;;;;;;;;;5052617;28;20033;-41
2023/01/08 09:29:34;;;;;;;42.97;15.73;;;;;;;;;;5053461;28;20029;-41
2023/01/08 09:32:00;;;;;;;34.55;16.02;;;;;;;;;;5053369;28;20021;-41
2023/01/08 09:34:26;;;;;;;46.63;17.73;;;;;;;;;;5053137;28;20218;-42
2023/01/08 09:36:52;;;;;;;34.95;14.45;;;;;;;;;;5053077;28;20021;-41
2023/01/08 09:39:18;;;;;;;35.90;16.60;;;;;;;;;;5053058;28;20043;-41
2023/01/08 09:41:45;;;;;;;40.90;16.98;;;;;;;;;;5051716;28;20064;-41
2023/01/08 09:44:13;;;;;;;37.20;16.95;;;;;;;;;;5052823;28;20463;-42
2023/01/08 09:46:39;;;;;;;37.75;17.52;;;;;;;;;;5053017;28;20079;-42
2023/01/08 09:49:05;;;;;;;38.63;16.40;;;;;;;;;;5052893;28;20028;-41
2023/01/08 09:51:35;;;;;;;34.67;13.43;;;;;;;;;;5053028;28;20025;-42
2023/01/08 09:54:01;;;;;;;31.58;15.50;;;;;;;;;;5052940;28;20476;-42
2023/01/08 09:56:27;;;;;;;43.05;16.65;;;;;;;;;;5052730;28;20032;-42
2023/01/08 09:58:57;;;;;;;33.63;16.52;;;;;;;;;;5052687;28;20024;-42
2023/01/08 10:01:25;;;;;;;34.85;13.40;;;;;;;;;;5052431;28;20051;-42
2023/01/08 10:04:11;;;;;;;41.50;15.75;;;;;;;;;;5052587;28;20082;-41
2023/01/08 10:06:36;;;;;;;38.72;13.93;;;;;;;;;;5044074;28;20450;-41
2023/01/08 10:09:03;;;;;;;31.15;15.38;;;;;;;;;;5052580;28;20138;-42
2023/01/08 10:11:34;;;;;;;30.95;14.88;;;;;;;;;;5052372;28;20065;-41
2023/01/08 10:14:00;;;;;;;36.42;15.68;;;;;;;;;;5052403;28;20029;-42
2023/01/08 10:16:30;;;;;;;32.17;14.32;;;;;;;;;;5052408;28;20036;-41
2023/01/08 10:19:01;;;;;;;34.97;13.77;;;;;;;;;;5052275;28;20021;-41
2023/01/08 10:21:31;;;;;;;33.47;14.30;;;;;;;;;;5052161;28;20037;-42
2023/01/08 10:23:57;;;;;;;30.55;14.25;;;;;;;;;;5052281;28;20032;-41
2023/01/08 10:26:27;;;;;;;26.90;12.73;;;;;;;;;;5052068;28;20024;-42
2023/01/08 10:29:04;;;;;;;33.53;13.48;;;;;;;;;;5051977;28;20491;-41
2023/01/08 10:31:30;;;;;;;30.05;15.27;;;;;;;;;;5052373;28;20025;-42
2023/01/08 10:33:56;;;;;;;28.30;12.77;;;;;;;;;;5052228;28;20027;-42
2023/01/08 10:36:22;;;;;;;34.17;13.00;;;;;;;;;;5051928;28;20024;-42
2023/01/08 10:38:56;;;;;;;30.83;13.15;;;;;;;;;;5051935;28;20045;-41
2023/01/08 10:41:22;;;;;;;28.20;13.70;;;;;;;;;;5051750;28;20112;-42
2023/01/08 10:43:52;;;;;;;30.05;14.52;;;;;;;;;;5051867;28;20021;-42
2023/01/08 10:46:23;;;;;;;28.83;11.27;;;;;;;;;;5051720;28;20017;-42
2023/01/08 10:48:56;;;;;;;24.13;12.77;;;;;;;;;;5051690;28;20567;-44
2023/01/08 10:51:25;;;;;;;22.40;11.68;;;;;;;;;;5051662;28;20056;-41
2023/01/08 10:53:52;;;;;;;24.90;11.52;;;;;;;;;;5051992;28;20399;-41
2023/01/08 10:56:19;;;;;;;22.52;10.25;;;;;;;;;;5051873;28;20024;-41
2023/01/08 10:58:45;;;;;;;21.20;9.68;;;;;;;;;;5051632;28;20036;-41
2023/01/08 11:01:12;;;;;;;18.92;8.35;;;;;;;;;;5051477;28;20041;-41
2023/01/08 11:03:37;;;;;;;22.45;9.68;;;;;;;;;;5051672;28;20037;-41
2023/01/08 11:06:13;;;;;;;18.40;7.00;;;;;;;;;;5051499;28;20104;-41
2023/01/08 11:08:47;;;;;;;15.43;7.57;;;;;;;;;;5051422;28;20051;-42
2023/01/08 11:11:13;;;;;;;20.70;8.18;;;;;;;;;;5051335;28;20082;-41
2023/01/08 11:13:38;;;;;;;15.57;7.60;;;;;;;;;;5051821;28;20411;-42
2023/01/08 11:16:05;;;;;;;17.92;6.38;;;;;;;;;;5050844;28;20029;-41
2023/01/08 11:18:35;;;;;;;23.42;8.65;;;;;;;;;;5051228;28;20021;-42
2023/01/08 11:21:09;;;;;;;28.00;12.32;;;;;;;;;;5051338;28;20029;-42
2023/01/08 11:23:35;;;;;;;20.88;10.38;;;;;;;;;;5051286;28;20028;-41
2023/01/08 11:26:29;;;;;;;36.92;12.60;;;;;;;;;;5051178;28;20475;-42
2023/01/08 11:29:04;;;;;;;28.75;11.35;;;;;;;;;;5046590;28;20051;-42
2023/01/08 11:31:49;;;;;;;37.85;13.05;;;;;;;;;;5049990;28;20061;-42
2023/01/08 11:34:27;;;;;;;28.50;11.48;;;;;;;;;;5051091;28;20036;-42
2023/01/08 11:36:55;;;;;;;32.63;13.25;;;;;;;;;;5051427;28;20036;-42
2023/01/08 11:39:21;;;;;;;32.85;12.48;;;;;;;;;;5051016;28;20025;-41
2023/01/08 11:41:49;;;;;;;28.50;13.02;;;;;;;;;;5051250;28;20021;-42
2023/01/08 11:44:27;;;;;;;26.27;13.43;;;;;;;;;;5051011;28;20464;-41
2023/01/08 11:47:06;;;;;;;36.25;11.43;;;;;;;;;;5051055;28;20025;-42
2023/01/08 11:49:31;;;;;;;28.23;11.45;;;;;;;;;;5051400;28;20048;-42
2023/01/08 11:52:09;;;;;;;30.90;12.15;;;;;;;;;;5051231;28;20018;-42
2023/01/08 11:54:34;;;;;;;31.23;15.05;;;;;;;;;;5051052;28;20499;-42
2023/01/08 11:57:19;;;;;;;34.55;13.00;;;;;;;;;;5050965;28;20027;-42
2023/01/08 12:00:01;;;;;;;23.52;11.73;;;;;;;;;;5050955;28;20484;-41
2023/01/08 12:02:32;;;;;;;25.83;11.88;;;;;;;;;;5050950;28;20053;-42
2023/01/08 12:05:17;;;;;;;25.42;11.43;;;;;;;;;;5051245;28;20330;-41
2023/01/08 12:07:51;;;;;;;28.55;11.48;;;;;;;;;;5050857;28;20048;-42
2023/01/08 12:10:28;;;;;;;34.58;14.63;;;;;;;;;;5050714;28;20104;-41
2023/01/08 12:12:56;;;;;;;29.52;11.18;;;;;;;;;;5050877;28;20518;-42
2023/01/08 12:15:44;;;;;;;32.85;12.38;;;;;;;;;;5051005;28;20021;-41
2023/01/08 12:18:21;;;;;;;34.75;11.80;;;;;;;;;;5050616;28;20065;-42
2023/01/08 12:20:52;;;;;;;22.67;9.50;;;;;;;;;;5050807;28;20033;-42
2023/01/08 12:23:36;;;;;;;31.73;12.55;;;;;;;;;;5050692;28;20037;-42
2023/01/08 12:26:28;;;;;;;31.15;11.10;;;;;;;;;;5050600;28;20056;-41
2023/01/08 12:29:13;;;;;;;25.23;10.43;;;;;;;;;;5044493;28;20053;-42
2023/01/08 12:31:50;;;;;;;27.20;10.25;;;;;;;;;;5054356;28;20049;-42
2023/01/08 12:34:20;;;;;;;23.30;10.85;;;;;;;;;;5054178;28;20036;-43
2023/01/08 12:36:49;;;;;;;22.45;8.70;;;;;;;;;;5054228;28;20040;-42
2023/01/08 12:39:16;;;;;;;24.88;11.82;;;;;;;;;;5054216;28;20108;-43
2023/01/08 12:41:43;;;;;;;28.27;9.90;;;;;;;;;;5052901;28;20033;-42
2023/01/08 12:44:10;;;;;;;22.13;8.63;;;;;;;;;;5054353;28;20033;-42
2023/01/08 12:46:44;;;;;;;21.40;9.10;;;;;;;;;;5054159;28;20020;-41
2023/01/08 12:49:13;;;;;;;24.10;8.80;;;;;;;;;;5053829;28;20048;-43
2023/01/08 12:51:38;;;;;;;18.00;8.57;;;;;;;;;;5054006;28;20051;-41
2023/01/08 12:54:04;;;;;;;20.88;10.32;;;;;;;;;;5053837;28;20029;-41
2023/01/08 12:56:47;;;;;;;16.05;9.07;;;;;;;;;;5054088;28;20017;-41
2023/01/08 12:59:13;;;;;;;25.48;9.73;;;;;;;;;;5053761;28;20545;-42
2023/01/08 13:01:53;;;;;;;14.32;7.95;;;;;;;;;;5053564;28;20053;-42
2023/01/08 13:04:19;;;;;;;17.00;7.95;;;;;;;;;;5053669;28;20040;-42
2023/01/08 13:07:03;;;;;;;17.67;7.32;;;;;;;;;;5053697;28;20013;-42
2023/01/08 13:09:29;;;;;;;23.05;9.20;;;;;;;;;;5053552;28;20033;-41
2023/01/08 13:11:56;;;;;;;24.85;10.32;;;;;;;;;;5053658;28;20558;-42
2023/01/08 13:14:22;;;;;;;43.08;13.90;;;;;;;;;;5053503;28;20094;-42
2023/01/08 13:16:59;;;;;;;23.88;11.10;;;;;;;;;;5053533;28;20013;-42
2023/01/08 13:19:26;;;;;;;26.00;8.27;;;;;;;;;;5053701;28;20021;-41
2023/01/08 13:21:56;;;;;;;17.55;7.70;;;;;;;;;;5053450;28;20110;-42
2023/01/08 13:24:28;;;;;;;23.80;8.43;;;;;;;;;;5053292;28;20442;-42
2023/01/08 13:26:54;;;;;;;20.88;8.95;;;;;;;;;;5053703;28;20032;-42
2023/01/08 13:29:24;;;;;;;17.20;6.60;;;;;;;;;;5053139;28;20037;-42
2023/01/08 13:31:50;;;;;;;20.50;7.60;;;;;;;;;;5053169;28;20033;-41
2023/01/08 13:34:20;;;;;;;22.55;7.95;;;;;;;;;;5053133;28;20017;-42
2023/01/08 13:36:56;;;;;;;19.60;8.88;;;;;;;;;;5053512;28;20116;-42
2023/01/08 13:39:23;;;;;;;23.05;8.32;;;;;;;;;;5052468;28;20032;-42
2023/01/08 13:41:55;;;;;;;15.10;7.65;;;;;;;;;;5053033;28;20039;-41
2023/01/08 13:44:23;;;;;;;25.92;9.52;;;;;;;;;;5052931;28;20029;-41
2023/01/08 13:46:53;;;;;;;19.88;8.82;;;;;;;;;;5053274;28;20021;-41
2023/01/08 13:49:24;;;;;;;24.00;9.75;;;;;;;;;;5052761;28;20048;-41
2023/01/08 13:51:50;;;;;;;18.20;8.23;;;;;;;;;;5053139;28;20124;-41
2023/01/08 13:54:21;;;;;;;21.92;11.45;;;;;;;;;;5052700;28;20107;-41
2023/01/08 13:56:50;;;;;;;14.27;7.75;;;;;;;;;;5052846;28;20021;-42
2023/01/08 13:59:19;;;;;;;18.38;8.60;;;;;;;;;;5052551;28;20021;-42
2023/01/08 14:01:54;;;;;;;14.90;7.00;;;;;;;;;;5052551;28;20094;-42
2023/01/08 14:04:21;;;;;;;25.00;7.65;;;;;;;;;;5051655;28;20060;-41
2023/01/08 14:06:47;;;;;;;14.50;6.93;;;;;;;;;;5052597;28;20021;-41
2023/01/08 14:09:19;;;;;;;21.92;8.10;;;;;;;;;;5052373;28;20037;-42
2023/01/08 14:11:45;;;;;;;13.30;7.77;;;;;;;;;;5052756;28;20099;-42
2023/01/08 14:14:12;;;;;;;21.88;6.70;;;;;;;;;;5052569;28;20021;-42
2023/01/08 14:16:38;;;;;;;13.77;6.95;;;;;;;;;;5052703;28;20029;-42
2023/01/08 14:19:04;;;;;;;15.40;7.32;;;;;;;;;;5052269;28;20021;-42
2023/01/08 14:21:29;;;;;;;12.13;6.75;;;;;;;;;;5052229;28;20033;-42
2023/01/08 14:23:55;;;;;;;12.70;7.32;;;;;;;;;;5052306;28;20021;-42